createdAt,value
2018-01-08T00:01:46.649Z,-1.47
2018-01-08T00:04:12.790Z,-1.39
2018-01-08T00:06:38.570Z,-1.38
2018-01-08T00:09:04.357Z,-1.40
2018-01-08T00:11:30.163Z,-1.40
2018-01-08T00:13:55.932Z,-1.38
2018-01-08T00:16:21.710Z,-1.38
2018-01-08T00:18:47.798Z,-1.42
2018-01-08T00:21:13.570Z,-1.39
2018-01-08T00:23:39.359Z,-1.48
2018-01-08T00:26:05.161Z,-1.46
2018-01-08T00:28:30.934Z,-1.47
2018-01-08T00:30:56.782Z,-1.36
2018-01-08T00:33:22.563Z,-1.30
2018-01-08T00:35:48.366Z,-1.36
2018-01-08T00:38:14.190Z,-1.35
2018-01-08T00:40:39.979Z,-1.53
2018-01-08T00:43:05.980Z,-1.46
2018-01-08T00:45:31.757Z,-1.40
2018-01-08T00:47:57.538Z,-1.45
2018-01-08T00:50:23.342Z,-1.57
2018-01-08T00:52:49.137Z,-1.51
2018-01-08T00:55:14.914Z,-1.53
2018-01-08T00:57:40.734Z,-1.59
2018-01-08T01:00:06.551Z,-1.67
2018-01-08T01:02:32.342Z,-1.65
2018-01-08T01:04:58.130Z,-1.72
2018-01-08T01:07:23.893Z,-1.77
2018-01-08T01:09:49.679Z,-1.86
2018-01-08T01:12:15.470Z,-1.88
2018-01-08T01:14:41.414Z,-1.86
2018-01-08T01:17:07.198Z,-1.90
2018-01-08T01:19:32.982Z,-1.82
2018-01-08T01:21:58.784Z,-1.82
2018-01-08T01:24:24.638Z,-1.85
2018-01-08T01:26:50.417Z,-1.87
2018-01-08T01:29:16.209Z,-1.80
2018-01-08T01:31:41.969Z,-1.87
2018-01-08T01:34:07.762Z,-1.85
2018-01-08T01:36:33.562Z,-1.84
2018-01-08T01:38:59.339Z,-1.93
2018-01-08T01:41:25.130Z,-1.93
2018-01-08T01:43:51.241Z,-1.94
2018-01-08T01:46:17.012Z,-2.02
2018-01-08T01:48:42.787Z,-2.03
2018-01-08T01:51:08.585Z,-2.01
2018-01-08T01:53:34.356Z,-2.01
2018-01-08T01:56:00.148Z,-2.05
2018-01-08T01:58:26.138Z,-2.09
2018-01-08T02:00:51.918Z,-2.10
2018-01-08T02:03:17.712Z,-2.08
2018-01-08T02:05:43.528Z,-2.16
2018-01-08T02:08:09.312Z,-2.13
2018-01-08T02:10:35.085Z,-2.15
2018-01-08T02:13:01.265Z,-2.22
2018-01-08T02:15:27.042Z,-2.20
2018-01-08T02:17:52.824Z,-2.23
2018-01-08T02:20:18.626Z,-2.24
2018-01-08T02:22:44.419Z,-2.23
2018-01-08T02:25:10.190Z,-2.20
2018-01-08T02:27:35.957Z,-2.29
2018-01-08T02:30:01.733Z,-2.23
2018-01-08T02:32:27.708Z,-2.25
2018-01-08T02:34:53.486Z,-2.25
2018-01-08T02:37:19.274Z,-2.31
2018-01-08T02:39:45.082Z,-2.34
2018-01-08T02:42:10.861Z,-2.36
2018-01-08T02:44:36.646Z,-2.30
2018-01-08T02:47:02.450Z,-2.31
2018-01-08T02:49:28.243Z,-2.31
2018-01-08T02:51:54.014Z,-2.32
2018-01-08T02:54:19.817Z,-2.26
2018-01-08T02:56:45.610Z,-2.25
2018-01-08T02:59:11.403Z,-2.29
2018-01-08T03:01:37.233Z,-2.41
2018-01-08T03:04:03.027Z,-2.29
2018-01-08T03:06:28.818Z,-2.30
2018-01-08T03:08:54.748Z,-2.33
2018-01-08T03:11:20.534Z,-2.35
2018-01-08T03:13:46.333Z,-2.36
2018-01-08T03:16:12.138Z,-2.40
2018-01-08T03:18:37.936Z,-2.39
2018-01-08T03:21:03.730Z,-2.38
2018-01-08T03:23:29.791Z,-2.29
2018-01-08T03:25:55.570Z,-1.04
2018-01-08T03:28:21.360Z,-1.03
2018-01-08T03:30:47.187Z,-1.91
2018-01-08T03:33:12.978Z,-2.14
2018-01-08T03:35:38.771Z,-2.28
2018-01-08T03:38:04.575Z,-2.39
2018-01-08T03:40:30.367Z,-2.41
2018-01-08T03:42:56.163Z,-2.37
2018-01-08T03:45:21.951Z,-2.38
2018-01-08T03:47:47.731Z,-2.44
2018-01-08T03:50:13.527Z,-2.47
2018-01-08T03:52:39.343Z,-2.46
2018-01-08T03:55:05.139Z,-2.53
2018-01-08T03:57:30.930Z,-2.49
2018-01-08T03:59:56.750Z,-2.50
2018-01-08T04:02:22.559Z,-2.43
2018-01-08T04:04:48.358Z,-2.54
2018-01-08T04:07:14.520Z,-2.52
2018-01-08T04:09:40.305Z,-2.54
2018-01-08T04:12:06.090Z,-2.52
2018-01-08T04:14:31.886Z,-2.56
2018-01-08T04:16:57.674Z,-2.63
2018-01-08T04:19:23.447Z,-2.73
2018-01-08T04:21:49.283Z,-2.72
2018-01-08T04:24:15.082Z,-2.66
2018-01-08T04:26:40.874Z,-2.71
2018-01-08T04:29:06.678Z,-2.82
2018-01-08T04:31:32.517Z,-2.69
2018-01-08T04:33:58.311Z,-2.77
2018-01-08T04:36:24.119Z,-2.85
2018-01-08T04:38:50.167Z,-2.92
2018-01-08T04:41:15.987Z,-2.89
2018-01-08T04:43:41.776Z,-2.83
2018-01-08T04:46:07.583Z,-2.85
2018-01-08T04:48:33.377Z,-2.84
2018-01-08T04:50:59.196Z,-2.89
2018-01-08T04:53:24.985Z,-2.87
2018-01-08T04:55:50.771Z,-2.84
2018-01-08T04:58:16.567Z,-2.88
2018-01-08T05:00:42.354Z,-2.88
2018-01-08T05:03:08.955Z,-2.83
2018-01-08T05:05:34.823Z,-2.93
2018-01-08T05:08:01.255Z,-2.89
2018-01-08T05:10:27.055Z,-2.88
2018-01-08T05:12:53.763Z,-2.95
2018-01-08T05:15:20.395Z,-2.99
2018-01-08T05:17:46.178Z,-2.93
2018-01-08T05:20:11.967Z,-2.87
2018-01-08T05:22:37.762Z,-2.85
2018-01-08T05:25:03.538Z,-2.87
2018-01-08T05:27:29.346Z,-2.85
2018-01-08T05:29:55.130Z,-2.82
2018-01-08T05:32:20.906Z,-2.81
2018-01-08T05:34:46.713Z,-2.81
2018-01-08T05:37:12.542Z,-2.76
2018-01-08T05:39:38.344Z,-2.87
2018-01-08T05:42:04.605Z,-2.89
2018-01-08T05:44:30.415Z,-2.84
2018-01-08T05:46:56.204Z,-2.76
2018-01-08T05:49:22.008Z,-2.77
2018-01-08T05:51:47.794Z,-2.83
2018-01-08T05:54:13.586Z,-2.79
2018-01-08T05:56:39.622Z,-2.85
2018-01-08T05:59:05.446Z,-2.89
2018-01-08T06:01:31.247Z,-2.88
2018-01-08T06:03:57.075Z,-2.89
2018-01-08T06:06:22.855Z,-2.91
2018-01-08T06:08:48.639Z,-2.89
2018-01-08T06:11:14.449Z,-2.89
2018-01-08T06:13:40.234Z,-2.98
2018-01-08T06:16:06.023Z,-2.89
2018-01-08T06:18:32.086Z,-2.95
2018-01-08T06:20:57.877Z,-2.95
2018-01-08T06:23:23.669Z,-2.98
2018-01-08T06:25:49.503Z,-2.98
2018-01-08T06:28:15.304Z,-2.94
2018-01-08T06:30:41.096Z,-3.00
2018-01-08T06:33:06.920Z,-3.07
2018-01-08T06:35:32.702Z,-3.06
2018-01-08T06:37:58.508Z,-3.08
2018-01-08T06:40:24.335Z,-3.10
2018-01-08T06:42:50.131Z,-3.04
2018-01-08T06:45:15.931Z,-3.03
2018-01-08T06:47:41.735Z,-3.06
2018-01-08T06:50:07.532Z,-3.08
2018-01-08T06:52:33.323Z,-3.05
2018-01-08T06:54:59.135Z,-3.00
2018-01-08T06:57:24.926Z,-2.91
2018-01-08T06:59:50.719Z,-2.91
2018-01-08T07:02:16.552Z,-2.93
2018-01-08T07:04:42.369Z,-2.99
2018-01-08T07:07:08.159Z,-3.04
2018-01-08T07:09:33.975Z,-3.02
2018-01-08T07:11:59.763Z,-3.02
2018-01-08T07:14:25.558Z,-3.05
2018-01-08T07:16:51.358Z,-3.07
2018-01-08T07:19:17.147Z,-3.08
2018-01-08T07:21:42.930Z,-3.11
2018-01-08T07:24:08.731Z,-3.14
2018-01-08T07:26:34.515Z,-3.09
2018-01-08T07:29:00.613Z,-3.07
2018-01-08T07:31:27.282Z,-3.12
2018-01-08T07:33:53.359Z,-3.13
2018-01-08T07:36:19.195Z,-3.09
2018-01-08T07:38:44.990Z,-3.11
2018-01-08T07:41:10.783Z,-3.19
2018-01-08T07:43:36.579Z,-3.20
2018-01-08T07:46:02.379Z,-3.17
2018-01-08T07:48:28.206Z,-3.12
2018-01-08T07:50:53.992Z,-3.11
2018-01-08T07:53:19.783Z,-3.09
2018-01-08T07:55:45.943Z,-3.09
2018-01-08T07:58:11.733Z,-3.16
2018-01-08T08:00:37.531Z,-3.16
2018-01-08T08:03:03.352Z,-2.80
2018-01-08T08:05:29.171Z,-2.29
2018-01-08T08:07:54.966Z,-2.13
2018-01-08T08:10:20.964Z,-2.24
2018-01-08T08:12:46.771Z,-1.95
2018-01-08T08:15:12.575Z,-1.67
2018-01-08T08:17:38.710Z,-1.74
2018-01-08T08:20:04.519Z,-2.19
2018-01-08T08:22:30.320Z,-2.36
2018-01-08T08:24:56.182Z,-2.41
2018-01-08T08:27:21.979Z,-2.42
2018-01-08T08:29:49.466Z,-2.39
2018-01-08T08:32:15.300Z,-2.41
2018-01-08T08:34:41.092Z,-2.33
2018-01-08T08:37:06.877Z,-2.38
2018-01-08T08:39:32.707Z,-2.38
2018-01-08T08:41:58.521Z,-2.41
2018-01-08T08:44:24.332Z,-2.35
2018-01-08T08:46:50.489Z,-2.32
2018-01-08T08:49:16.983Z,-2.29
2018-01-08T08:51:43.662Z,-2.25
2018-01-08T08:54:09.509Z,-2.21
2018-01-08T08:56:35.318Z,-2.13
2018-01-08T08:59:01.115Z,-2.07
2018-01-08T09:01:26.941Z,-2.00
2018-01-08T09:03:52.755Z,-1.96
2018-01-08T09:06:18.564Z,-1.89
2018-01-08T09:08:44.384Z,-1.80
2018-01-08T09:11:10.186Z,-1.80
2018-01-08T09:13:36.024Z,-1.82
2018-01-08T09:16:02.657Z,-1.76
2018-01-08T09:18:28.523Z,-1.74
2018-01-08T09:20:54.687Z,-1.69
2018-01-08T09:23:21.082Z,-1.67
2018-01-08T09:25:46.920Z,-1.61
2018-01-08T09:28:13.078Z,-1.56
2018-01-08T09:30:38.883Z,-1.48
2018-01-08T09:33:04.828Z,-1.42
2018-01-08T09:35:31.044Z,-1.44
2018-01-08T09:37:56.843Z,-1.32
2018-01-08T09:40:23.640Z,-1.13
2018-01-08T09:42:49.445Z,-1.09
2018-01-08T09:45:16.248Z,-1.01
2018-01-08T09:47:43.045Z,-0.94
2018-01-08T09:50:08.848Z,-0.88
2018-01-08T09:52:35.654Z,-0.77
2018-01-08T09:55:01.693Z,-0.74
2018-01-08T09:57:27.608Z,-0.67
2018-01-08T09:59:53.576Z,-0.53
2018-01-08T10:02:19.246Z,-0.45
2018-01-08T10:04:57.468Z,-0.40
2018-01-08T10:07:35.621Z,-0.24
2018-01-08T10:13:07.324Z,0.00
2018-01-08T10:15:45.587Z,0.04
2018-01-08T10:18:23.826Z,0.10
2018-01-08T10:20:49.895Z,0.15
2018-01-08T10:23:16.969Z,0.23
2018-01-08T10:25:42.770Z,0.33
2018-01-08T10:28:08.732Z,0.43
2018-01-08T10:30:34.580Z,0.38
2018-01-08T10:33:00.547Z,0.40
2018-01-08T10:35:26.360Z,0.50
2018-01-08T10:37:53.030Z,0.51
2018-01-08T10:40:19.434Z,0.55
2018-01-08T10:42:51.558Z,0.57
2018-01-08T10:45:23.760Z,0.66
2018-01-08T10:47:55.894Z,0.71
2018-01-08T10:50:27.948Z,0.83
2018-01-08T10:52:58.187Z,0.90
2018-01-08T10:55:24.024Z,1.46
2018-01-08T10:57:49.843Z,1.42
2018-01-08T11:00:15.781Z,1.55
2018-01-08T11:02:48.586Z,1.57
2018-01-08T11:05:14.374Z,1.64
2018-01-08T11:07:40.388Z,1.84
2018-01-08T11:10:06.256Z,1.70
2018-01-08T11:12:35.076Z,1.52
2018-01-08T11:15:01.896Z,1.45
2018-01-08T11:17:28.351Z,1.50
2018-01-08T11:19:54.198Z,1.49
2018-01-08T11:22:20.036Z,1.55
2018-01-08T11:24:45.856Z,1.64
2018-01-08T11:27:11.671Z,1.60
2018-01-08T11:29:38.166Z,1.59
2018-01-08T11:32:03.972Z,1.67
2018-01-08T11:34:31.004Z,1.64
2018-01-08T11:36:56.894Z,1.71
2018-01-08T11:39:22.702Z,1.74
2018-01-08T11:41:48.556Z,1.77
2018-01-08T11:44:15.202Z,1.79
2018-01-08T11:46:42.960Z,1.74
2018-01-08T11:49:08.823Z,1.69
2018-01-08T11:51:34.656Z,1.78
2018-01-08T11:54:00.456Z,1.84
2018-01-08T11:56:26.291Z,1.81
2018-01-08T11:58:52.307Z,1.86
2018-01-08T12:01:18.111Z,1.86
2018-01-08T12:03:44.012Z,1.93
2018-01-08T12:06:09.868Z,1.98
2018-01-08T12:08:35.686Z,1.94
2018-01-08T12:11:02.459Z,1.94
2018-01-08T12:13:28.995Z,1.94
2018-01-08T12:15:54.822Z,1.88
2018-01-08T12:18:20.969Z,1.94
2018-01-08T12:20:47.634Z,2.03
2018-01-08T12:23:13.641Z,2.07
2018-01-08T12:25:39.432Z,2.17
2018-01-08T12:28:05.254Z,2.18
2018-01-08T12:30:31.069Z,2.28
2018-01-08T12:32:56.933Z,2.34
2018-01-08T12:35:22.929Z,2.49
2018-01-08T12:37:48.760Z,2.60
2018-01-08T12:40:15.244Z,2.64
2018-01-08T12:42:41.087Z,2.78
2018-01-08T12:45:07.154Z,2.86
2018-01-08T12:47:32.970Z,3.07
2018-01-08T12:49:58.783Z,3.32
2018-01-08T12:52:24.612Z,3.28
2018-01-08T12:54:50.803Z,3.29
2018-01-08T12:57:16.626Z,3.49
2018-01-08T12:59:42.439Z,3.47
2018-01-08T13:02:08.263Z,3.43
2018-01-08T13:04:34.090Z,3.34
2018-01-08T13:06:59.944Z,3.42
2018-01-08T13:09:25.925Z,3.42
2018-01-08T13:11:51.743Z,3.38
2018-01-08T13:14:17.541Z,3.58
2018-01-08T13:16:43.382Z,3.63
2018-01-08T13:19:09.190Z,3.73
2018-01-08T13:21:35.033Z,3.89
2018-01-08T13:24:00.863Z,3.77
2018-01-08T13:26:26.669Z,3.99
2018-01-08T13:28:52.475Z,3.91
2018-01-08T13:31:18.473Z,4.07
2018-01-08T13:33:44.267Z,3.84
2018-01-08T13:36:10.070Z,4.02
2018-01-08T13:38:42.958Z,4.15
2018-01-08T13:41:08.756Z,4.08
2018-01-08T13:43:34.567Z,3.96
2018-01-08T13:46:00.384Z,3.91
2018-01-08T13:48:26.198Z,4.00
2018-01-08T13:50:52.010Z,3.72
2018-01-08T13:53:17.879Z,3.15
2018-01-08T13:55:43.688Z,3.39
2018-01-08T13:58:09.500Z,3.21
2018-01-08T14:00:35.318Z,2.91
2018-01-08T14:03:01.127Z,2.88
2018-01-08T14:05:26.958Z,2.78
2018-01-08T14:07:52.929Z,2.75
2018-01-08T14:10:18.755Z,2.68
2018-01-08T14:12:45.580Z,2.89
2018-01-08T14:15:11.442Z,2.77
2018-01-08T14:17:37.253Z,2.79
2018-01-08T14:20:03.074Z,2.71
2018-01-08T14:22:28.911Z,2.58
2018-01-08T14:27:27.329Z,2.34
2018-01-08T14:29:53.150Z,2.26
2018-01-08T14:32:18.959Z,2.15
2018-01-08T14:34:44.772Z,2.08
2018-01-08T14:37:10.572Z,2.07
2018-01-08T14:39:36.373Z,1.99
2018-01-08T14:42:02.582Z,1.95
2018-01-08T14:44:28.388Z,1.88
2018-01-08T14:46:54.387Z,1.86
2018-01-08T14:49:20.216Z,1.82
2018-01-08T14:51:46.160Z,1.77
2018-01-08T14:54:11.982Z,1.69
2018-01-08T14:56:37.793Z,1.70
2018-01-08T14:59:03.610Z,1.62
2018-01-08T15:01:29.414Z,1.56
2018-01-08T15:03:55.682Z,1.57
2018-01-08T15:06:21.487Z,1.49
2018-01-08T15:08:47.602Z,1.38
2018-01-08T15:11:13.547Z,1.31
2018-01-08T15:13:40.184Z,1.27
2018-01-08T15:16:05.987Z,1.21
2018-01-08T15:18:31.807Z,1.21
2018-01-08T15:20:57.616Z,1.17
2018-01-08T15:23:23.537Z,1.05
2018-01-08T15:25:49.867Z,0.94
2018-01-08T15:28:15.650Z,0.90
2018-01-08T15:30:41.582Z,0.80
2018-01-08T15:33:07.730Z,0.79
2018-01-08T15:35:33.672Z,0.74
2018-01-08T15:37:59.464Z,0.65
2018-01-08T15:40:25.274Z,0.64
2018-01-08T15:42:51.086Z,0.59
2018-01-08T15:45:16.886Z,0.52
2018-01-08T15:47:42.871Z,0.49
2018-01-08T15:50:08.662Z,0.43
2018-01-08T15:52:34.534Z,0.39
2018-01-08T15:55:00.349Z,0.42
2018-01-08T15:57:26.143Z,0.30
2018-01-08T15:59:52.410Z,0.29
2018-01-08T16:02:18.214Z,0.25
2018-01-08T16:04:44.006Z,0.27
2018-01-08T16:07:09.828Z,0.18
2018-01-08T16:09:35.620Z,0.20
2018-01-08T16:12:01.424Z,0.09
2018-01-08T16:14:27.510Z,0.12
2018-01-08T16:16:53.335Z,0.09
2018-01-08T16:19:19.610Z,0.08
2018-01-08T16:21:45.464Z,0.05
2018-01-08T16:24:11.275Z,1.37
2018-01-08T16:26:37.095Z,1.13
2018-01-08T16:29:02.888Z,1.61
2018-01-08T16:31:28.920Z,1.95
2018-01-08T16:33:54.712Z,0.81
2018-01-08T16:36:20.755Z,0.42
2018-01-08T16:38:46.589Z,0.26
2018-01-08T16:41:12.381Z,0.16
2018-01-08T16:43:38.167Z,0.08
2018-01-08T16:46:03.979Z,0.02
2018-01-08T16:48:29.769Z,-0.06
2018-01-08T16:50:55.542Z,-0.07
2018-01-08T16:53:21.683Z,0.00
2018-01-08T16:55:47.464Z,-0.13
2018-01-08T16:58:13.256Z,-0.06
2018-01-08T17:00:39.055Z,-0.02
2018-01-08T17:03:04.835Z,-0.10
2018-01-08T17:05:30.696Z,-0.08
2018-01-08T17:07:56.484Z,-0.15
2018-01-08T17:10:22.268Z,-0.11
2018-01-08T17:12:48.223Z,-0.09
2018-01-08T17:15:14.012Z,-0.07
2018-01-08T17:17:39.809Z,-0.05
2018-01-08T17:20:05.603Z,-0.08
2018-01-08T17:22:31.391Z,-0.15
2018-01-08T17:24:57.183Z,-0.18
2018-01-08T17:27:23.145Z,-0.18
2018-01-08T17:29:48.951Z,-0.15
2018-01-08T17:32:14.739Z,-0.19
2018-01-08T17:34:40.570Z,-0.21
2018-01-08T17:37:06.355Z,-0.24
2018-01-08T17:39:32.155Z,-0.24
2018-01-08T17:41:57.950Z,-0.21
2018-01-08T17:44:23.740Z,-0.30
2018-01-08T17:46:49.680Z,-0.10
2018-01-08T17:49:15.484Z,0.40
2018-01-08T17:51:41.278Z,0.42
2018-01-08T17:54:07.075Z,0.96
2018-01-08T17:56:32.909Z,0.95
2018-01-08T17:58:59.078Z,0.94
2018-01-08T18:01:24.884Z,1.24
2018-01-08T18:03:50.684Z,0.90
2018-01-08T18:06:16.739Z,0.28
2018-01-08T18:08:42.531Z,0.20
2018-01-08T18:11:08.323Z,-0.06
2018-01-08T18:13:34.132Z,-0.13
2018-01-08T18:15:59.943Z,-0.08
2018-01-08T18:18:25.761Z,-0.15
2018-01-08T18:20:51.583Z,-0.17
2018-01-08T18:23:17.414Z,-0.16
2018-01-08T18:25:43.233Z,-0.12
2018-01-08T18:28:09.484Z,-0.21
2018-01-08T18:30:35.278Z,0.16
2018-01-08T18:33:01.944Z,0.10
2018-01-08T18:35:28.503Z,0.20
2018-01-08T18:37:54.332Z,0.08
2018-01-08T18:40:20.240Z,0.05
2018-01-08T18:42:46.302Z,0.12
2018-01-08T18:45:12.120Z,0.19
2018-01-08T18:47:37.937Z,0.16
2018-01-08T18:50:03.744Z,0.12
2018-01-08T18:52:30.263Z,0.20
2018-01-08T18:54:56.054Z,0.08
2018-01-08T18:57:21.834Z,0.10
2018-01-08T18:59:47.675Z,0.15
2018-01-08T19:02:13.851Z,0.14
2018-01-08T19:04:39.663Z,0.14
2018-01-08T19:07:05.971Z,0.02
2018-01-08T19:09:31.801Z,-0.10
2018-01-08T19:11:57.582Z,-0.08
2018-01-08T19:14:23.407Z,-0.01
2018-01-08T19:16:49.193Z,-0.02
2018-01-08T19:19:14.999Z,-0.04
2018-01-08T19:21:40.826Z,-0.11
2018-01-08T19:24:06.633Z,-0.15
2018-01-08T19:26:32.415Z,-0.22
2018-01-08T19:28:58.756Z,0.03
2018-01-08T19:31:24.551Z,0.08
2018-01-08T19:33:50.355Z,0.05
2018-01-08T19:36:16.420Z,0.13
2018-01-08T19:38:42.387Z,-0.02
2018-01-08T19:41:08.175Z,0.02
2018-01-08T19:43:33.999Z,0.08
2018-01-08T19:45:59.820Z,-0.06
2018-01-08T19:48:25.822Z,-0.13
2018-01-08T19:50:51.615Z,-0.07
2018-01-08T19:53:17.411Z,-0.19
2018-01-08T19:55:43.492Z,-0.15
2018-01-08T19:58:09.304Z,0.07
2018-01-08T20:00:35.119Z,-0.02
2018-01-08T20:03:01.199Z,-0.09
2018-01-08T20:05:26.991Z,-0.08
2018-01-08T20:07:52.788Z,-0.35
2018-01-08T20:10:18.883Z,-0.44
2018-01-08T20:12:44.684Z,-0.54
2018-01-08T20:15:10.482Z,-0.57
2018-01-08T20:17:36.764Z,-0.54
2018-01-08T20:20:02.579Z,-0.51
2018-01-08T20:22:28.386Z,-0.53
2018-01-08T20:24:54.414Z,-0.55
2018-01-08T20:27:20.255Z,-0.56
2018-01-08T20:29:46.039Z,-0.60
2018-01-08T20:32:12.182Z,-0.56
2018-01-08T20:34:37.987Z,-0.52
2018-01-08T20:37:04.483Z,-0.53
2018-01-08T20:39:30.668Z,-0.58
2018-01-08T20:41:56.471Z,-0.51
2018-01-08T20:44:22.503Z,-0.49
2018-01-08T20:46:48.403Z,-0.48
2018-01-08T20:49:14.204Z,-0.48
2018-01-08T20:51:39.996Z,-0.44
2018-01-08T20:54:05.791Z,-0.43
2018-01-08T20:56:32.468Z,-0.39
2018-01-08T20:58:58.292Z,-0.41
2018-01-08T21:01:24.633Z,-0.42
2018-01-08T21:03:50.700Z,-0.36
2018-01-08T21:06:16.895Z,-0.25
2018-01-08T21:08:42.749Z,-0.21
2018-01-08T21:11:08.860Z,-0.14
2018-01-08T21:13:34.676Z,-0.12
2018-01-08T21:16:00.515Z,-0.02
2018-01-08T21:18:26.680Z,0.07
2018-01-08T21:20:52.788Z,0.17
2018-01-08T21:23:18.597Z,0.21
2018-01-08T21:25:44.423Z,0.26
2018-01-08T21:28:10.215Z,0.26
2018-01-08T21:30:35.999Z,0.23
2018-01-08T21:33:02.089Z,0.28
2018-01-08T21:35:28.107Z,0.27
2018-01-08T21:37:53.910Z,0.24
2018-01-08T21:40:19.715Z,0.30
2018-01-08T21:42:45.569Z,0.24
2018-01-08T21:45:11.364Z,0.29
2018-01-08T21:47:37.155Z,0.22
2018-01-08T21:50:03.021Z,0.13
2018-01-08T21:52:29.724Z,0.17
2018-01-08T21:54:55.528Z,0.19
2018-01-08T21:57:21.551Z,0.25
2018-01-08T21:59:47.338Z,0.24
2018-01-08T22:02:13.135Z,0.26
2018-01-08T22:04:39.112Z,0.26
2018-01-08T22:07:04.898Z,0.34
2018-01-08T22:09:30.682Z,0.33
2018-01-08T22:11:56.497Z,0.31
2018-01-08T22:14:22.290Z,0.34
2018-01-08T22:16:48.080Z,0.32
2018-01-08T22:19:13.928Z,0.39
2018-01-08T22:21:39.749Z,0.39
2018-01-08T22:24:05.562Z,0.40
2018-01-08T22:26:31.400Z,0.43
2018-01-08T22:28:57.234Z,0.39
2018-01-08T22:31:23.032Z,0.40
2018-01-08T22:33:48.920Z,0.43
2018-01-08T22:36:14.727Z,0.39
2018-01-08T22:38:40.520Z,0.39
2018-01-08T22:41:06.319Z,0.53
2018-01-08T22:43:32.110Z,0.43
2018-01-08T22:45:57.934Z,0.38
2018-01-08T22:48:23.852Z,0.39
2018-01-08T22:50:49.675Z,0.30
2018-01-08T22:53:15.503Z,0.32
2018-01-08T22:55:41.358Z,0.40
2018-01-08T22:58:07.164Z,0.55
2018-01-08T23:00:32.969Z,0.39
2018-01-08T23:02:58.813Z,0.31
2018-01-08T23:05:24.682Z,0.35
2018-01-08T23:07:50.529Z,0.33
2018-01-08T23:10:16.340Z,0.26
2018-01-08T23:12:42.147Z,0.26
2018-01-08T23:15:07.971Z,0.32
2018-01-08T23:17:33.805Z,0.27
2018-01-08T23:19:59.623Z,0.25
2018-01-08T23:22:25.445Z,0.26
2018-01-08T23:24:51.314Z,0.22
2018-01-08T23:27:17.155Z,0.31
2018-01-08T23:29:42.959Z,0.27
2018-01-08T23:32:08.785Z,0.20
2018-01-08T23:34:34.582Z,0.24
2018-01-08T23:37:00.413Z,0.21
2018-01-08T23:39:26.229Z,0.17
2018-01-08T23:41:52.046Z,0.24
2018-01-08T23:44:17.907Z,0.25
2018-01-08T23:46:43.734Z,0.26
2018-01-08T23:49:09.529Z,0.27
2018-01-08T23:51:35.308Z,0.23
2018-01-08T23:54:01.427Z,0.19
2018-01-08T23:56:27.214Z,0.18
2018-01-08T23:58:53.008Z,0.20
